createdAt,value
2023-01-21T00:00:17.045Z,-1.90
2023-01-21T00:01:17.101Z,-1.90
2023-01-21T00:02:17.091Z,-1.87
2023-01-21T00:03:16.761Z,-1.88
2023-01-21T00:04:16.364Z,-1.87
2023-01-21T00:05:16.877Z,-1.87
2023-01-21T00:06:16.361Z,-1.87
2023-01-21T00:07:16.919Z,-1.88
2023-01-21T00:08:16.425Z,-1.91
2023-01-21T00:09:16.932Z,-1.90
2023-01-21T00:10:16.605Z,-1.88
2023-01-21T00:11:16.890Z,-1.87
2023-01-21T00:12:16.797Z,-1.88
2023-01-21T00:13:16.497Z,-1.88
2023-01-21T00:14:17.052Z,-1.88
2023-01-21T00:15:16.590Z,-1.88
2023-01-21T00:16:17.143Z,-1.90
2023-01-21T00:17:16.713Z,-1.92
2023-01-21T00:18:17.269Z,-1.92
2023-01-21T00:19:16.876Z,-1.91
2023-01-21T00:20:16.701Z,-1.92
2023-01-21T00:21:16.683Z,-1.94
2023-01-21T00:22:16.527Z,-1.92
2023-01-21T00:23:17.015Z,-1.94
2023-01-21T00:24:16.563Z,-1.94
2023-01-21T00:25:17.059Z,-1.94
2023-01-21T00:26:16.576Z,-1.94
2023-01-21T00:27:17.077Z,-1.92
2023-01-21T00:28:16.749Z,-1.97
2023-01-21T00:29:17.258Z,-1.92
2023-01-21T00:30:17.172Z,-1.90
2023-01-21T00:31:16.371Z,-1.88
2023-01-21T00:32:16.968Z,-1.88
2023-01-21T00:33:16.459Z,-1.91
2023-01-21T00:34:16.954Z,-1.91
2023-01-21T00:35:16.458Z,-1.92
2023-01-21T00:36:16.941Z,-1.92
2023-01-21T00:37:16.445Z,-1.88
2023-01-21T00:38:16.941Z,-1.94
2023-01-21T00:39:16.463Z,-1.92
2023-01-21T00:40:17.218Z,-1.94
2023-01-21T00:41:17.324Z,-1.91
2023-01-21T00:42:16.519Z,-1.92
2023-01-21T00:43:17.075Z,-1.92
2023-01-21T00:44:16.574Z,-1.95
2023-01-21T00:45:17.107Z,-1.92
2023-01-21T00:46:16.666Z,-1.90
2023-01-21T00:47:17.254Z,-1.87
2023-01-21T00:48:16.769Z,-1.88
2023-01-21T00:49:17.243Z,-1.90
2023-01-21T00:50:16.961Z,-1.87
2023-01-21T00:51:16.980Z,-1.84
2023-01-21T00:52:16.842Z,-1.84
2023-01-21T00:53:16.325Z,-1.87
2023-01-21T00:54:16.857Z,-1.88
2023-01-21T00:55:16.360Z,-1.91
2023-01-21T00:56:17.082Z,-1.90
2023-01-21T00:57:16.928Z,-1.91
2023-01-21T00:58:16.782Z,-1.90
2023-01-21T00:59:16.350Z,-1.87
2023-01-21T01:00:17.212Z,-1.90
2023-01-21T01:01:16.443Z,-1.88
2023-01-21T01:02:17.200Z,-1.92
2023-01-21T01:03:16.810Z,-1.91
2023-01-21T01:04:17.295Z,-1.90
2023-01-21T01:05:16.839Z,-1.86
2023-01-21T01:06:16.357Z,-1.87
2023-01-21T01:07:16.899Z,-1.87
2023-01-21T01:08:16.398Z,-1.88
2023-01-21T01:09:16.903Z,-1.91
2023-01-21T01:10:16.583Z,-1.92
2023-01-21T01:11:16.398Z,-1.91
2023-01-21T01:12:17.201Z,-1.91
2023-01-21T01:13:16.726Z,-1.91
2023-01-21T01:14:17.227Z,-2.00
2023-01-21T01:15:16.742Z,-2.01
2023-01-21T01:16:17.304Z,-1.98
2023-01-21T01:17:17.207Z,-1.95
2023-01-21T01:18:16.697Z,-1.95
2023-01-21T01:19:17.192Z,-1.94
2023-01-21T01:20:16.862Z,-1.94
2023-01-21T01:21:16.775Z,-1.97
2023-01-21T01:22:16.971Z,-1.92
2023-01-21T01:23:16.501Z,-1.94
2023-01-21T01:24:16.986Z,-1.98
2023-01-21T01:25:16.488Z,-2.01
2023-01-21T01:26:17.012Z,-1.97
2023-01-21T01:27:16.512Z,-2.01
2023-01-21T01:28:16.995Z,-1.98
2023-01-21T01:29:16.545Z,-1.97
2023-01-21T01:30:17.267Z,-1.94
2023-01-21T01:31:17.358Z,-1.97
2023-01-21T01:32:17.176Z,-1.94
2023-01-21T01:33:16.648Z,-1.92
2023-01-21T01:34:17.138Z,-1.87
2023-01-21T01:35:16.641Z,-1.90
2023-01-21T01:36:17.141Z,-1.91
2023-01-21T01:37:16.749Z,-1.90
2023-01-21T01:38:17.314Z,-1.88
2023-01-21T01:39:16.805Z,-1.90
2023-01-21T01:40:17.652Z,-1.83
2023-01-21T01:41:16.538Z,-1.77
2023-01-21T01:42:16.715Z,-1.79
2023-01-21T01:43:17.231Z,-1.76
2023-01-21T01:44:16.711Z,-1.77
2023-01-21T01:45:17.189Z,-1.79
2023-01-21T01:46:16.759Z,-1.81
2023-01-21T01:47:16.374Z,-1.81
2023-01-21T01:48:16.918Z,-1.80
2023-01-21T01:49:16.415Z,-1.84
2023-01-21T01:50:17.195Z,-1.86
2023-01-21T01:51:17.172Z,-1.81
2023-01-21T01:52:16.970Z,-1.86
2023-01-21T01:53:16.452Z,-1.92
2023-01-21T01:54:16.959Z,-1.95
2023-01-21T01:55:16.476Z,-1.94
2023-01-21T01:56:16.973Z,-1.95
2023-01-21T01:57:16.457Z,-1.92
2023-01-21T01:58:16.990Z,-1.95
2023-01-21T01:59:16.484Z,-1.95
2023-01-21T02:00:17.261Z,-2.01
2023-01-21T02:01:17.296Z,-2.02
2023-01-21T02:02:17.128Z,-2.02
2023-01-21T02:03:16.676Z,-2.02
2023-01-21T02:04:17.188Z,-2.04
2023-01-21T02:05:16.676Z,-2.04
2023-01-21T02:06:17.156Z,-2.08
2023-01-21T02:07:16.619Z,-2.09
2023-01-21T02:08:17.087Z,-2.04
2023-01-21T02:09:16.583Z,-2.07
2023-01-21T02:10:17.432Z,-2.08
2023-01-21T02:11:16.517Z,-2.08
2023-01-21T02:12:16.974Z,-2.11
2023-01-21T02:13:16.515Z,-2.15
2023-01-21T02:14:17.008Z,-2.17
2023-01-21T02:15:16.510Z,-2.12
2023-01-21T02:16:17.080Z,-2.11
2023-01-21T02:17:16.797Z,-2.15
2023-01-21T02:18:16.309Z,-2.15
2023-01-21T02:19:16.840Z,-2.11
2023-01-21T02:20:16.557Z,-2.11
2023-01-21T02:21:16.562Z,-2.12
2023-01-21T02:22:16.440Z,-2.15
2023-01-21T02:23:16.976Z,-2.21
2023-01-21T02:24:16.471Z,-2.19
2023-01-21T02:25:16.977Z,-2.23
2023-01-21T02:26:16.493Z,-2.25
2023-01-21T02:27:17.006Z,-2.23
2023-01-21T02:28:16.532Z,-2.21
2023-01-21T02:29:17.051Z,-2.21
2023-01-21T02:30:16.983Z,-2.21
2023-01-21T02:31:17.190Z,-2.25
2023-01-21T02:32:16.516Z,-2.25
2023-01-21T02:33:17.017Z,-2.28
2023-01-21T02:34:16.502Z,-2.29
2023-01-21T02:35:16.992Z,-2.32
2023-01-21T02:36:16.516Z,-2.34
2023-01-21T02:37:17.019Z,-2.38
2023-01-21T02:38:16.507Z,-2.35
2023-01-21T02:39:17.014Z,-2.38
2023-01-21T02:40:16.776Z,-2.35
2023-01-21T02:41:16.755Z,-2.31
2023-01-21T02:42:16.400Z,-2.29
2023-01-21T02:43:16.920Z,-2.29
2023-01-21T02:44:16.403Z,-2.31
2023-01-21T02:45:16.908Z,-2.32
2023-01-21T02:46:16.457Z,-2.32
2023-01-21T02:47:17.081Z,-2.31
2023-01-21T02:48:16.581Z,-2.32
2023-01-21T02:49:17.111Z,-2.29
2023-01-21T02:50:16.772Z,-2.29
2023-01-21T02:51:16.707Z,-2.28
2023-01-21T02:52:16.665Z,-2.23
2023-01-21T02:53:17.190Z,-2.25
2023-01-21T02:54:16.707Z,-2.26
2023-01-21T02:55:17.212Z,-2.29
2023-01-21T02:56:16.747Z,-2.23
2023-01-21T02:57:17.218Z,-2.23
2023-01-21T02:58:16.721Z,-2.21
2023-01-21T02:59:17.246Z,-2.19
2023-01-21T03:00:16.987Z,-2.19
2023-01-21T03:01:17.019Z,-2.18
2023-01-21T03:02:17.006Z,-2.21
2023-01-21T03:03:16.546Z,-2.25
2023-01-21T03:04:17.021Z,-2.23
2023-01-21T03:05:16.564Z,-2.31
2023-01-21T03:06:17.080Z,-2.29
2023-01-21T03:07:16.605Z,-2.28
2023-01-21T03:08:17.107Z,-2.23
2023-01-21T03:09:16.626Z,-2.23
2023-01-21T03:10:17.355Z,-2.25
2023-01-21T03:11:16.372Z,-2.21
2023-01-21T03:12:17.096Z,-2.22
2023-01-21T03:13:16.417Z,-2.21
2023-01-21T03:14:16.922Z,-2.18
2023-01-21T03:15:16.424Z,-2.17
2023-01-21T03:16:16.945Z,-2.26
2023-01-21T03:17:16.524Z,-2.26
2023-01-21T03:18:17.010Z,-2.29
2023-01-21T03:19:16.496Z,-2.28
2023-01-21T03:20:17.223Z,-2.31
2023-01-21T03:21:16.995Z,-2.28
2023-01-21T03:22:17.095Z,-2.26
2023-01-21T03:23:16.627Z,-2.26
2023-01-21T03:24:17.111Z,-2.26
2023-01-21T03:25:16.619Z,-2.26
2023-01-21T03:26:17.125Z,-2.28
2023-01-21T03:27:16.627Z,-2.29
2023-01-21T03:28:17.269Z,-2.26
2023-01-21T03:29:16.756Z,-2.25
2023-01-21T03:30:17.534Z,-2.23
2023-01-21T03:31:16.853Z,-2.22
2023-01-21T03:32:16.472Z,-2.23
2023-01-21T03:33:16.994Z,-2.21
2023-01-21T03:34:16.502Z,-2.21
2023-01-21T03:35:17.021Z,-2.26
2023-01-21T03:36:16.516Z,-2.23
2023-01-21T03:37:17.016Z,-2.25
2023-01-21T03:38:16.529Z,-2.25
2023-01-21T03:39:17.018Z,-2.29
2023-01-21T03:40:16.776Z,-2.26
2023-01-21T03:41:16.786Z,-2.28
2023-01-21T03:42:16.409Z,-2.29
2023-01-21T03:43:16.888Z,-2.29
2023-01-21T03:44:16.403Z,-2.28
2023-01-21T03:45:16.888Z,-2.29
2023-01-21T03:46:16.377Z,-2.32
2023-01-21T03:47:16.874Z,-2.34
2023-01-21T03:48:16.357Z,-2.35
2023-01-21T03:49:16.853Z,-2.35
2023-01-21T03:50:16.661Z,-2.35
2023-01-21T03:51:16.700Z,-2.35
2023-01-21T03:52:17.288Z,-2.36
2023-01-21T03:53:16.787Z,-2.35
2023-01-21T03:54:17.276Z,-2.32
2023-01-21T03:55:16.785Z,-2.34
2023-01-21T03:56:16.303Z,-2.34
2023-01-21T03:57:16.862Z,-2.32
2023-01-21T03:58:16.359Z,-2.28
2023-01-21T03:59:16.884Z,-2.31
2023-01-21T04:00:16.844Z,-2.29
2023-01-21T04:01:17.068Z,-2.29
2023-01-21T04:02:17.250Z,-2.31
2023-01-21T04:03:16.869Z,-2.26
2023-01-21T04:04:16.384Z,-2.28
2023-01-21T04:05:16.874Z,-2.26
2023-01-21T04:06:16.357Z,-2.23
2023-01-21T04:07:16.881Z,-2.23
2023-01-21T04:08:16.376Z,-2.23
2023-01-21T04:09:16.877Z,-2.22
2023-01-21T04:10:16.633Z,-2.21
2023-01-21T04:11:16.624Z,-2.23
2023-01-21T04:12:16.383Z,-2.22
2023-01-21T04:13:16.891Z,-2.22
2023-01-21T04:14:16.390Z,-2.18
2023-01-21T04:15:16.893Z,-2.14
2023-01-21T04:16:16.403Z,-2.14
2023-01-21T04:17:17.012Z,-2.14
2023-01-21T04:18:16.538Z,-2.09
2023-01-21T04:19:17.044Z,-2.07
2023-01-21T04:20:16.738Z,-2.05
2023-01-21T04:21:16.755Z,-2.02
2023-01-21T04:22:16.567Z,-2.04
2023-01-21T04:23:17.124Z,-2.04
2023-01-21T04:24:16.614Z,-2.04
2023-01-21T04:25:17.113Z,-2.01
2023-01-21T04:26:16.675Z,-2.02
2023-01-21T04:27:17.200Z,-2.01
2023-01-21T04:28:16.709Z,-1.98
2023-01-21T04:29:17.220Z,-1.98
2023-01-21T04:30:16.938Z,-2.01
2023-01-21T04:31:16.966Z,-2.02
2023-01-21T04:32:16.590Z,-2.00
2023-01-21T04:33:17.092Z,-1.97
2023-01-21T04:34:16.577Z,-1.97
2023-01-21T04:35:17.084Z,-1.97
2023-01-21T04:36:16.585Z,-1.94
2023-01-21T04:37:17.160Z,-1.95
2023-01-21T04:38:16.652Z,-1.95
2023-01-21T04:39:17.178Z,-1.97
2023-01-21T04:40:16.847Z,-1.95
2023-01-21T04:41:16.930Z,-1.95
2023-01-21T04:42:16.960Z,-1.94
2023-01-21T04:43:16.446Z,-1.94
2023-01-21T04:44:16.951Z,-1.95
2023-01-21T04:45:16.481Z,-1.97
2023-01-21T04:46:17.033Z,-1.95
2023-01-21T04:47:16.643Z,-2.01
2023-01-21T04:48:17.171Z,-1.97
2023-01-21T04:49:16.641Z,-1.97
2023-01-21T04:50:17.301Z,-1.92
2023-01-21T04:51:17.357Z,-1.94
2023-01-21T04:52:16.602Z,-1.94
2023-01-21T04:53:17.101Z,-1.95
2023-01-21T04:54:16.595Z,-1.95
2023-01-21T04:55:17.120Z,-1.98
2023-01-21T04:56:16.630Z,-1.97
2023-01-21T04:57:17.149Z,-1.95
2023-01-21T04:58:16.672Z,-1.94
2023-01-21T04:59:17.179Z,-1.92
2023-01-21T05:00:17.050Z,-1.92
2023-01-21T05:01:16.915Z,-1.91
2023-01-21T05:02:16.875Z,-1.90
2023-01-21T05:03:16.431Z,-1.91
2023-01-21T05:04:16.928Z,-1.91
2023-01-21T05:05:16.428Z,-1.91
2023-01-21T05:06:16.906Z,-1.92
2023-01-21T05:07:16.416Z,-1.92
2023-01-21T05:08:16.948Z,-1.92
2023-01-21T05:09:16.436Z,-1.92
2023-01-21T05:10:17.151Z,-1.91
2023-01-21T05:11:17.263Z,-1.90
2023-01-21T05:12:17.137Z,-1.88
2023-01-21T05:13:16.622Z,-1.88
2023-01-21T05:14:17.123Z,-1.88
2023-01-21T05:15:16.642Z,-1.88
2023-01-21T05:16:17.148Z,-1.88
2023-01-21T05:17:16.690Z,-1.81
2023-01-21T05:18:17.214Z,-1.81
2023-01-21T05:19:16.724Z,-1.80
2023-01-21T05:20:17.567Z,-1.80
2023-01-21T05:21:16.590Z,-1.90
2023-01-21T05:22:16.476Z,-1.90
2023-01-21T05:23:16.999Z,-1.87
2023-01-21T05:24:16.561Z,-1.88
2023-01-21T05:25:17.095Z,-1.83
2023-01-21T05:26:16.596Z,-1.83
2023-01-21T05:27:17.085Z,-1.84
2023-01-21T05:28:16.578Z,-1.86
2023-01-21T05:29:17.103Z,-1.86
2023-01-21T05:30:16.842Z,-1.86
2023-01-21T05:31:16.674Z,-1.87
2023-01-21T05:32:16.762Z,-1.87
2023-01-21T05:33:17.312Z,-1.86
2023-01-21T05:34:16.835Z,-1.90
2023-01-21T05:35:16.343Z,-1.97
2023-01-21T05:36:16.870Z,-1.97
2023-01-21T05:37:16.370Z,-1.92
2023-01-21T05:38:16.861Z,-1.98
2023-01-21T05:39:16.376Z,-1.92
2023-01-21T05:40:17.157Z,-1.92
2023-01-21T05:41:17.296Z,-1.91
2023-01-21T05:42:17.103Z,-1.94
2023-01-21T05:43:16.675Z,-1.92
2023-01-21T05:44:17.794Z,-1.94
2023-01-21T05:45:16.400Z,-1.94
2023-01-21T05:46:16.922Z,-1.92
2023-01-21T05:47:16.497Z,-1.91
2023-01-21T05:48:17.013Z,-1.94
2023-01-21T05:49:16.561Z,-1.92
2023-01-21T05:50:17.386Z,-1.94
2023-01-21T05:51:16.447Z,-1.95
2023-01-21T05:52:17.045Z,-1.95
2023-01-21T05:53:16.553Z,-1.92
2023-01-21T05:54:17.042Z,-1.92
2023-01-21T05:55:16.538Z,-1.94
2023-01-21T05:56:17.039Z,-1.95
2023-01-21T05:57:16.565Z,-1.94
2023-01-21T05:58:17.048Z,-1.91
2023-01-21T05:59:16.568Z,-1.91
2023-01-21T06:00:17.452Z,-1.91
2023-01-21T06:01:16.436Z,-1.92
2023-01-21T06:02:17.247Z,-1.90
2023-01-21T06:03:16.904Z,-1.88
2023-01-21T06:04:16.490Z,-1.87
2023-01-21T06:05:16.996Z,-1.84
2023-01-21T06:06:16.502Z,-1.83
2023-01-21T06:07:16.998Z,-1.83
2023-01-21T06:08:16.493Z,-1.81
2023-01-21T06:09:17.015Z,-1.81
2023-01-21T06:10:16.840Z,-1.79
2023-01-21T06:11:16.881Z,-1.79
2023-01-21T06:12:16.975Z,-1.72
2023-01-21T06:13:16.534Z,-1.76
2023-01-21T06:14:17.044Z,-1.79
2023-01-21T06:15:16.575Z,-1.70
2023-01-21T06:16:17.069Z,-1.69
2023-01-21T06:17:16.611Z,-1.66
2023-01-21T06:18:17.135Z,-1.59
2023-01-21T06:19:16.642Z,-1.58
2023-01-21T06:20:17.339Z,-1.56
2023-01-21T06:21:16.361Z,-1.58
2023-01-21T06:22:16.948Z,-1.60
2023-01-21T06:23:16.450Z,-1.60
2023-01-21T06:24:16.944Z,-1.59
2023-01-21T06:25:16.447Z,-1.56
2023-01-21T06:26:16.964Z,-1.58
2023-01-21T06:27:16.471Z,-1.59
2023-01-21T06:28:16.964Z,-1.63
2023-01-21T06:29:16.515Z,-1.64
2023-01-21T06:30:17.317Z,-1.60
2023-01-21T06:31:17.367Z,-1.59
2023-01-21T06:32:17.107Z,-1.58
2023-01-21T06:33:16.583Z,-1.59
2023-01-21T06:34:17.118Z,-1.56
2023-01-21T06:35:16.655Z,-1.53
2023-01-21T06:36:17.135Z,-1.53
2023-01-21T06:37:16.625Z,-1.52
2023-01-21T06:38:17.131Z,-1.53
2023-01-21T06:39:16.669Z,-1.52
2023-01-21T06:40:17.464Z,-1.51
2023-01-21T06:41:16.637Z,-1.49
2023-01-21T06:42:17.261Z,-1.51
2023-01-21T06:43:16.769Z,-1.49
2023-01-21T06:44:17.300Z,-1.52
2023-01-21T06:45:16.793Z,-1.48
2023-01-21T06:46:17.372Z,-1.48
2023-01-21T06:47:16.985Z,-1.51
2023-01-21T06:48:16.483Z,-1.55
2023-01-21T06:49:17.016Z,-1.52
2023-01-21T06:50:16.824Z,-1.51
2023-01-21T06:51:16.993Z,-1.53
2023-01-21T06:52:16.529Z,-1.51
2023-01-21T06:53:17.065Z,-1.53
2023-01-21T06:54:16.659Z,-1.51
2023-01-21T06:55:17.160Z,-1.49
2023-01-21T06:56:16.664Z,-1.49
2023-01-21T06:57:17.189Z,-1.55
2023-01-21T06:58:16.705Z,-1.56
2023-01-21T06:59:17.196Z,-1.53
2023-01-21T07:00:17.046Z,-1.48
2023-01-21T07:01:16.966Z,-1.52
2023-01-21T07:02:17.082Z,-1.51
2023-01-21T07:03:16.627Z,-1.51
2023-01-21T07:04:17.154Z,-1.51
2023-01-21T07:05:16.839Z,-1.51
2023-01-21T07:06:17.031Z,-1.52
2023-01-21T07:07:16.560Z,-1.53
2023-01-21T07:08:17.111Z,-1.53
2023-01-21T07:09:16.613Z,-1.53
2023-01-21T07:10:17.302Z,-1.51
2023-01-21T07:11:16.344Z,-1.53
2023-01-21T07:12:16.449Z,-1.51
2023-01-21T07:13:16.948Z,-1.49
2023-01-21T07:14:16.451Z,-1.48
2023-01-21T07:15:17.250Z,-1.46
2023-01-21T07:16:16.447Z,-1.46
2023-01-21T07:17:17.141Z,-1.42
2023-01-21T07:18:16.649Z,-1.41
2023-01-21T07:19:17.127Z,-1.42
2023-01-21T07:20:16.679Z,-1.45
2023-01-21T07:21:17.172Z,-1.45
2023-01-21T07:22:16.675Z,-1.42
2023-01-21T07:23:17.185Z,-1.41
2023-01-21T07:24:16.663Z,-1.44
2023-01-21T07:25:17.455Z,-1.41
2023-01-21T07:26:16.522Z,-1.39
2023-01-21T07:27:17.022Z,-1.39
2023-01-21T07:28:16.511Z,-1.39
2023-01-21T07:29:17.009Z,-1.36
2023-01-21T07:30:16.780Z,-1.35
2023-01-21T07:31:16.900Z,-1.35
2023-01-21T07:32:17.115Z,-1.31
2023-01-21T07:33:16.605Z,-1.29
2023-01-21T07:34:17.095Z,-1.32
2023-01-21T07:35:16.871Z,-1.32
2023-01-21T07:36:16.933Z,-1.32
2023-01-21T07:37:16.462Z,-1.28
2023-01-21T07:38:16.984Z,-1.27
2023-01-21T07:39:16.474Z,-1.25
2023-01-21T07:40:17.004Z,-1.23
2023-01-21T07:41:16.534Z,-1.21
2023-01-21T07:42:16.739Z,-1.16
2023-01-21T07:43:17.256Z,-1.16
2023-01-21T07:44:16.822Z,-1.20
2023-01-21T07:45:16.593Z,-1.17
2023-01-21T07:46:16.675Z,-1.16
2023-01-21T07:47:17.228Z,-1.14
2023-01-21T07:48:16.736Z,-1.13
2023-01-21T07:49:17.375Z,-1.10
2023-01-21T07:50:16.951Z,-1.07
2023-01-21T07:51:16.481Z,-1.18
2023-01-21T07:52:16.401Z,-1.18
2023-01-21T07:53:16.898Z,-1.20
2023-01-21T07:54:16.407Z,-1.24
2023-01-21T07:55:17.185Z,-1.23
2023-01-21T07:56:17.018Z,-1.23
2023-01-21T07:57:16.564Z,-1.27
2023-01-21T07:58:17.055Z,-1.27
2023-01-21T07:59:16.751Z,-1.27
2023-01-21T08:00:17.246Z,-1.23
2023-01-21T08:01:16.771Z,-1.23
2023-01-21T08:02:17.121Z,-1.20
2023-01-21T08:03:16.820Z,-1.18
2023-01-21T08:04:16.321Z,-1.18
2023-01-21T08:05:17.032Z,-1.18
2023-01-21T08:06:16.884Z,-1.16
2023-01-21T08:07:16.397Z,-1.13
2023-01-21T08:08:16.937Z,-1.13
2023-01-21T08:09:16.447Z,-1.11
2023-01-21T08:10:16.958Z,-1.10
2023-01-21T08:11:16.445Z,-1.07
2023-01-21T08:12:17.019Z,-1.06
2023-01-21T08:13:16.515Z,-1.06
2023-01-21T08:14:17.017Z,-1.03
2023-01-21T08:15:16.801Z,-1.03
2023-01-21T08:16:16.859Z,-1.06
2023-01-21T08:17:16.467Z,-1.10
2023-01-21T08:18:16.956Z,-1.06
2023-01-21T08:19:16.476Z,-1.04
2023-01-21T08:20:16.998Z,-1.06
2023-01-21T08:21:16.520Z,-1.03
2023-01-21T08:22:16.793Z,-1.03
2023-01-21T08:23:17.304Z,-1.04
2023-01-21T08:24:16.839Z,-1.03
2023-01-21T08:25:16.633Z,-1.04
2023-01-21T08:26:16.615Z,-1.04
2023-01-21T08:27:17.093Z,-1.04
2023-01-21T08:28:16.604Z,-1.07
2023-01-21T08:29:17.107Z,-1.07
2023-01-21T08:30:16.616Z,-1.03
2023-01-21T08:31:17.224Z,-1.00
2023-01-21T08:32:16.720Z,-0.97
2023-01-21T08:33:17.266Z,-0.98
2023-01-21T08:34:16.773Z,-0.97
2023-01-21T08:35:17.557Z,-0.96
2023-01-21T08:36:16.529Z,-0.97
2023-01-21T08:37:17.031Z,-0.89
2023-01-21T08:38:16.536Z,-0.86
2023-01-21T08:39:17.043Z,-0.84
2023-01-21T08:40:16.537Z,-0.82
2023-01-21T08:41:17.051Z,-0.84
2023-01-21T08:42:16.775Z,-0.83
2023-01-21T08:43:17.323Z,-0.86
2023-01-21T08:44:16.842Z,-0.83
2023-01-21T08:45:16.782Z,-0.79
2023-01-21T08:46:16.908Z,-0.77
2023-01-21T08:47:16.427Z,-0.76
2023-01-21T08:48:16.922Z,-0.73
2023-01-21T08:49:16.421Z,-0.74
2023-01-21T08:50:17.238Z,-0.74
2023-01-21T08:51:16.800Z,-0.69
2023-01-21T08:52:16.647Z,-0.73
2023-01-21T08:53:17.192Z,-0.70
2023-01-21T08:54:16.716Z,-0.62
2023-01-21T08:55:17.468Z,-0.62
2023-01-21T08:56:16.409Z,-0.65
2023-01-21T08:57:16.939Z,-0.62
2023-01-21T08:58:16.437Z,-0.63
2023-01-21T08:59:16.948Z,-0.63
2023-01-21T09:00:16.451Z,-0.62
2023-01-21T09:01:16.983Z,-0.59
2023-01-21T09:02:16.353Z,-0.56
2023-01-21T09:03:16.970Z,-0.56
2023-01-21T09:04:16.508Z,-0.55
2023-01-21T09:05:17.314Z,-0.55
2023-01-21T09:06:16.375Z,-0.55
2023-01-21T09:07:16.868Z,-0.52
2023-01-21T09:08:16.376Z,-0.46
2023-01-21T09:09:16.933Z,-0.42
2023-01-21T09:10:16.431Z,-0.42
2023-01-21T09:11:16.914Z,-0.39
2023-01-21T09:12:16.367Z,-0.37
2023-01-21T09:13:16.925Z,-0.38
2023-01-21T09:14:16.442Z,-0.37
2023-01-21T09:15:17.171Z,-0.42
2023-01-21T09:16:17.252Z,-0.41
2023-01-21T09:17:16.894Z,-0.38
2023-01-21T09:18:16.394Z,-0.37
2023-01-21T09:19:16.907Z,-0.34
2023-01-21T09:20:16.394Z,-0.33
2023-01-21T09:21:16.900Z,-0.33
2023-01-21T09:22:16.851Z,-0.28
2023-01-21T09:23:16.317Z,-0.26
2023-01-21T09:24:16.832Z,-0.19
2023-01-21T09:25:16.625Z,-0.17
2023-01-21T09:26:16.511Z,-0.17
2023-01-21T09:27:17.038Z,-0.13
2023-01-21T09:28:16.546Z,-0.13
2023-01-21T09:29:17.063Z,-0.13
2023-01-21T09:30:16.543Z,-0.11
2023-01-21T09:31:17.215Z,-0.10
2023-01-21T09:32:16.757Z,-0.06
2023-01-21T09:33:17.281Z,-0.07
2023-01-21T09:34:16.771Z,-0.09
2023-01-21T09:35:17.550Z,-0.13
2023-01-21T09:36:16.750Z,-0.11
2023-01-21T09:37:17.249Z,-0.14
2023-01-21T09:38:16.732Z,-0.07
2023-01-21T09:39:17.235Z,0.01
2023-01-21T09:40:16.746Z,0.01
2023-01-21T09:41:17.312Z,-0.02
2023-01-21T09:42:16.768Z,0.01
2023-01-21T09:43:17.288Z,0.01
2023-01-21T09:44:16.805Z,0.07
2023-01-21T09:45:16.725Z,0.15
2023-01-21T09:46:16.747Z,0.21
2023-01-21T09:47:16.358Z,0.25
2023-01-21T09:48:16.850Z,0.28
2023-01-21T09:49:16.334Z,0.11
2023-01-21T09:50:16.876Z,0.10
2023-01-21T09:51:16.450Z,0.14
2023-01-21T09:52:17.001Z,0.14
2023-01-21T09:53:16.496Z,0.08
2023-01-21T09:54:17.005Z,0.01
2023-01-21T09:55:16.721Z,-0.07
2023-01-21T09:56:16.868Z,-0.02
2023-01-21T09:57:16.374Z,0.01
2023-01-21T09:58:16.886Z,0.01
2023-01-21T09:59:16.384Z,-0.09
2023-01-21T10:00:16.886Z,-0.07
2023-01-21T10:01:16.538Z,-0.03
2023-01-21T10:02:16.957Z,-0.02
2023-01-21T10:03:16.435Z,-0.06
2023-01-21T10:04:16.930Z,-0.11
2023-01-21T10:05:16.763Z,-0.13
2023-01-21T10:06:16.691Z,-0.14
2023-01-21T10:07:17.249Z,-0.13
2023-01-21T10:08:16.760Z,-0.06
2023-01-21T10:09:17.249Z,-0.05
2023-01-21T10:10:16.753Z,-0.02
2023-01-21T10:11:17.272Z,0.01
2023-01-21T10:12:17.178Z,0.01
2023-01-21T10:13:16.667Z,-0.02
2023-01-21T10:14:17.150Z,0.02
2023-01-21T10:15:17.114Z,-0.03
2023-01-21T10:16:17.182Z,-0.09
2023-01-21T10:17:16.747Z,-0.14
2023-01-21T10:18:17.294Z,-0.16
2023-01-21T10:19:16.803Z,-0.14
2023-01-21T10:20:16.415Z,-0.20
2023-01-21T10:21:17.083Z,-0.26
2023-01-21T10:22:16.497Z,-0.16
2023-01-21T10:23:17.002Z,-0.05
2023-01-21T10:24:16.518Z,0.02
2023-01-21T10:25:17.224Z,0.11
2023-01-21T10:26:17.252Z,0.08
2023-01-21T10:27:16.766Z,0.02
2023-01-21T10:28:17.309Z,-0.06
2023-01-21T10:29:16.822Z,-0.13
2023-01-21T10:30:16.376Z,-0.10
2023-01-21T10:31:17.012Z,0.01
2023-01-21T10:32:17.291Z,0.05
2023-01-21T10:33:16.838Z,0.11
2023-01-21T10:34:16.393Z,0.13
2023-01-21T10:35:17.108Z,0.18
2023-01-21T10:36:17.228Z,0.10
2023-01-21T10:37:16.712Z,0.05
2023-01-21T10:38:17.256Z,0.05
2023-01-21T10:39:16.770Z,-0.07
2023-01-21T10:40:17.262Z,0.07
2023-01-21T10:41:16.830Z,0.07
2023-01-21T10:42:16.614Z,0.15
2023-01-21T10:43:17.145Z,0.13
2023-01-21T10:44:16.665Z,0.11
2023-01-21T10:45:17.511Z,0.18
2023-01-21T10:46:16.564Z,0.20
2023-01-21T10:47:17.203Z,0.21
2023-01-21T10:48:16.707Z,0.20
2023-01-21T10:49:17.238Z,0.05
2023-01-21T10:50:16.743Z,-0.02
2023-01-21T10:51:17.337Z,-0.02
2023-01-21T10:52:16.510Z,0.07
2023-01-21T10:53:16.999Z,0.07
2023-01-21T10:54:16.489Z,0.02
2023-01-21T10:55:17.192Z,0.04
2023-01-21T10:56:17.245Z,0.14
2023-01-21T10:57:16.785Z,0.15
2023-01-21T10:58:17.327Z,0.18
2023-01-21T10:59:16.845Z,0.21
2023-01-21T11:00:16.404Z,0.14
2023-01-21T11:01:16.990Z,0.17
2023-01-21T11:02:16.477Z,0.22
2023-01-21T11:03:17.110Z,0.21
2023-01-21T11:04:16.631Z,0.22
2023-01-21T11:05:17.443Z,0.25
2023-01-21T11:06:16.391Z,0.25
2023-01-21T11:07:16.892Z,0.29
2023-01-21T11:08:16.416Z,0.25
2023-01-21T11:09:16.897Z,0.11
2023-01-21T11:10:16.401Z,0.21
2023-01-21T11:11:16.932Z,0.21
2023-01-21T11:12:16.946Z,0.24
2023-01-21T11:13:16.473Z,0.18
2023-01-21T11:14:16.977Z,0.20
2023-01-21T11:15:17.699Z,0.18
2023-01-21T11:16:16.719Z,0.17
2023-01-21T11:17:17.220Z,0.14
2023-01-21T11:18:16.687Z,0.10
2023-01-21T11:19:16.737Z,0.07
2023-01-21T11:20:17.228Z,0.10
2023-01-21T11:21:16.741Z,0.13
2023-01-21T11:22:16.393Z,0.14
2023-01-21T11:23:16.912Z,0.14
2023-01-21T11:24:16.392Z,0.11
2023-01-21T11:25:17.028Z,0.20
2023-01-21T11:26:17.041Z,0.20
2023-01-21T11:27:16.552Z,0.24
2023-01-21T11:28:17.072Z,0.31
2023-01-21T11:29:16.582Z,0.31
2023-01-21T11:30:37.224Z,0.35
2023-01-21T11:31:16.635Z,0.34
2023-01-21T11:32:17.316Z,0.32
2023-01-21T11:33:17.076Z,0.31
2023-01-21T11:34:16.579Z,0.32
2023-01-21T11:35:17.073Z,0.36
2023-01-21T11:36:16.556Z,0.32
2023-01-21T11:37:17.042Z,0.32
2023-01-21T11:38:16.531Z,0.32
2023-01-21T11:39:17.068Z,0.39
2023-01-21T11:40:18.446Z,0.38
2023-01-21T11:41:16.555Z,0.41
2023-01-21T11:42:16.904Z,0.45
2023-01-21T11:43:16.453Z,0.46
2023-01-21T11:44:16.961Z,0.28
2023-01-21T11:45:16.695Z,0.26
2023-01-21T11:46:16.666Z,0.31
2023-01-21T11:47:17.200Z,0.31
2023-01-21T11:48:16.750Z,0.32
2023-01-21T11:49:17.263Z,0.45
2023-01-21T11:50:17.048Z,0.53
2023-01-21T11:51:17.151Z,0.59
2023-01-21T11:52:16.896Z,0.64
2023-01-21T11:53:16.407Z,0.63
2023-01-21T11:54:16.928Z,0.62
2023-01-21T11:55:16.441Z,0.67
2023-01-21T11:56:16.966Z,0.67
2023-01-21T11:57:16.454Z,0.66
2023-01-21T11:58:16.947Z,0.67
2023-01-21T11:59:16.432Z,0.64
2023-01-21T12:00:17.227Z,0.74
2023-01-21T12:01:17.326Z,0.74
2023-01-21T12:02:16.919Z,0.71
2023-01-21T12:03:16.445Z,0.62
2023-01-21T12:04:16.943Z,0.69
2023-01-21T12:05:16.445Z,0.67
2023-01-21T12:06:16.957Z,0.63
2023-01-21T12:07:16.446Z,0.67
2023-01-21T12:08:16.955Z,0.66
2023-01-21T12:09:16.487Z,0.63
2023-01-21T12:10:17.187Z,0.67
2023-01-21T12:11:17.181Z,0.53
2023-01-21T12:12:17.107Z,0.53
2023-01-21T12:13:16.606Z,0.43
2023-01-21T12:14:17.081Z,0.53
2023-01-21T12:15:16.608Z,0.59
2023-01-21T12:16:17.204Z,0.62
2023-01-21T12:17:16.758Z,0.66
2023-01-21T12:18:17.303Z,0.71
2023-01-21T12:19:16.869Z,0.70
2023-01-21T12:20:16.688Z,0.67
2023-01-21T12:21:16.725Z,0.66
2023-01-21T12:22:17.274Z,0.69
2023-01-21T12:23:16.780Z,0.62
2023-01-21T12:24:17.259Z,0.53
2023-01-21T12:25:16.752Z,0.55
2023-01-21T12:26:17.282Z,0.49
2023-01-21T12:27:16.777Z,0.45
2023-01-21T12:28:17.320Z,0.41
2023-01-21T12:29:17.850Z,0.45
2023-01-21T12:30:17.406Z,0.46
2023-01-21T12:31:16.618Z,0.56
2023-01-21T12:32:16.796Z,0.56
2023-01-21T12:33:17.274Z,0.56
2023-01-21T12:34:16.799Z,0.60
2023-01-21T12:35:17.437Z,0.64
2023-01-21T12:36:16.552Z,0.57
2023-01-21T12:37:17.051Z,0.36
2023-01-21T12:38:16.561Z,0.36
2023-01-21T12:39:17.108Z,0.36
2023-01-21T12:40:16.844Z,0.35
2023-01-21T12:41:16.876Z,0.41
2023-01-21T12:42:16.811Z,0.49
2023-01-21T12:43:16.323Z,0.42
2023-01-21T12:44:16.820Z,0.28
2023-01-21T12:45:16.557Z,0.29
2023-01-21T12:46:16.588Z,0.36
2023-01-21T12:47:17.190Z,0.39
2023-01-21T12:48:16.677Z,0.35
2023-01-21T12:49:17.178Z,0.39
2023-01-21T12:50:16.677Z,0.39
2023-01-21T12:51:17.250Z,0.35
2023-01-21T12:52:17.019Z,0.35
2023-01-21T12:53:16.526Z,0.24
2023-01-21T12:54:17.071Z,0.17
2023-01-21T12:55:16.744Z,0.17
2023-01-21T12:56:16.820Z,0.22
2023-01-21T12:57:16.345Z,0.20
2023-01-21T12:58:16.827Z,0.22